createdAt,value
2022-10-15T00:01:08.523Z,127.23
2022-10-15T00:03:39.588Z,120.73
2022-10-15T00:06:08.665Z,125.77
2022-10-15T00:08:36.368Z,131.33
2022-10-15T00:11:05.432Z,127.13
2022-10-15T00:13:33.803Z,130.80
2022-10-15T00:16:01.835Z,118.33
2022-10-15T00:18:31.043Z,128.07
2022-10-15T00:20:58.582Z,128.37
2022-10-15T00:23:26.290Z,123.10
2022-10-15T00:26:02.418Z,127.57
2022-10-15T00:28:33.392Z,117.87
2022-10-15T00:33:37.613Z,129.73
2022-10-15T00:36:07.420Z,121.43
2022-10-15T00:38:35.336Z,121.23
2022-10-15T00:41:03.243Z,126.57
2022-10-15T00:43:43.394Z,128.70
2022-10-15T00:46:18.844Z,126.97
2022-10-15T00:48:51.522Z,133.97
2022-10-15T00:51:20.425Z,129.63
2022-10-15T00:53:49.439Z,131.53
2022-10-15T00:56:18.095Z,127.70
2022-10-15T00:58:45.866Z,125.10
2022-10-15T01:01:13.486Z,125.77
2022-10-15T01:03:41.090Z,121.53
2022-10-15T01:06:10.028Z,119.23
2022-10-15T01:08:37.708Z,137.87
2022-10-15T01:11:15.486Z,120.03
2022-10-15T01:13:50.704Z,122.50
2022-10-15T01:16:20.393Z,135.10
2022-10-15T01:18:53.219Z,142.77
2022-10-15T01:21:26.028Z,137.30
2022-10-15T01:24:45.649Z,130.23
2022-10-15T01:27:24.226Z,133.47
2022-10-15T01:30:27.517Z,122.73
2022-10-15T01:33:03.346Z,124.17
2022-10-15T01:35:36.822Z,145.57
2022-10-15T01:38:10.922Z,128.97
2022-10-15T01:40:43.479Z,131.70
2022-10-15T01:43:13.045Z,117.17
2022-10-15T01:45:46.390Z,126.30
2022-10-15T01:48:14.179Z,132.80
2022-10-15T01:50:44.869Z,127.43
2022-10-15T01:53:13.007Z,116.63
2022-10-15T01:55:43.292Z,130.07
2022-10-15T01:58:12.163Z,124.70
2022-10-15T02:00:39.966Z,126.93
2022-10-15T02:03:08.841Z,127.13
2022-10-15T02:05:39.161Z,133.27
2022-10-15T02:08:11.720Z,133.10
2022-10-15T02:13:15.668Z,130.30
2022-10-15T02:15:47.394Z,132.07
2022-10-15T02:18:19.870Z,128.77
2022-10-15T02:20:52.643Z,130.67
2022-10-15T02:23:22.713Z,129.03
2022-10-15T02:25:52.388Z,131.37
2022-10-15T02:28:20.427Z,130.83
2022-10-15T02:30:50.898Z,134.63
2022-10-15T02:33:21.596Z,129.73
2022-10-15T02:35:50.699Z,132.33
2022-10-15T02:38:21.338Z,128.33
2022-10-15T02:40:49.422Z,132.37
2022-10-15T02:43:17.273Z,117.40
2022-10-15T02:45:44.784Z,130.53
2022-10-15T02:48:12.279Z,132.30
2022-10-15T02:50:41.107Z,126.17
2022-10-15T02:53:08.721Z,160.07
2022-10-15T02:55:36.257Z,150.77
2022-10-15T02:58:03.772Z,104.13
2022-10-15T03:00:31.467Z,111.87
2022-10-15T03:02:58.965Z,111.67
2022-10-15T03:08:01.732Z,116.37
2022-10-15T03:10:29.235Z,117.13
2022-10-15T03:12:56.703Z,117.07
2022-10-15T03:15:24.248Z,119.53
2022-10-15T03:17:51.756Z,121.47
2022-10-15T03:20:19.473Z,121.23
2022-10-15T03:22:46.974Z,118.33
2022-10-15T03:25:15.960Z,119.70
2022-10-15T03:27:43.653Z,118.80
2022-10-15T03:30:11.998Z,118.13
2022-10-15T03:32:39.594Z,122.23
2022-10-15T03:35:07.963Z,120.40
2022-10-15T03:37:35.489Z,113.20
2022-10-15T03:40:03.152Z,124.17
2022-10-15T03:42:32.031Z,122.93
2022-10-15T03:44:59.517Z,122.37
2022-10-15T03:47:27.116Z,119.50
2022-10-15T03:49:54.620Z,118.60
2022-10-15T03:52:22.413Z,131.97
2022-10-15T03:54:50.159Z,127.37
2022-10-15T03:57:17.648Z,124.53
2022-10-15T03:59:46.510Z,123.53
2022-10-15T04:02:14.023Z,120.03
2022-10-15T04:04:41.519Z,112.73
2022-10-15T04:07:09.026Z,116.63
2022-10-15T04:09:36.543Z,113.93
2022-10-15T04:12:04.133Z,117.63
2022-10-15T04:14:31.639Z,121.27
2022-10-15T04:17:00.547Z,123.03
2022-10-15T04:19:28.050Z,130.23
2022-10-15T04:21:55.657Z,128.03
2022-10-15T04:24:23.446Z,124.93
2022-10-15T04:26:51.000Z,114.27
2022-10-15T04:29:18.634Z,139.10
2022-10-15T04:31:46.153Z,124.13
2022-10-15T04:34:15.015Z,126.93
2022-10-15T04:36:42.495Z,127.13
2022-10-15T04:39:12.257Z,126.07
2022-10-15T04:41:41.999Z,121.97
2022-10-15T04:44:09.510Z,125.63
2022-10-15T04:46:37.043Z,125.87
2022-10-15T04:49:04.568Z,126.70
2022-10-15T04:51:33.415Z,120.70
2022-10-15T04:54:01.603Z,160.37
2022-10-15T04:56:29.232Z,124.87
2022-10-15T04:58:56.889Z,129.73
2022-10-15T05:01:24.766Z,127.13
2022-10-15T05:03:52.237Z,126.83
2022-10-15T05:06:21.020Z,124.87
2022-10-15T05:08:50.354Z,133.37
2022-10-15T05:11:19.497Z,114.63
2022-10-15T05:13:47.088Z,121.47
2022-10-15T05:16:16.476Z,127.10
2022-10-15T05:18:45.475Z,117.80
2022-10-15T05:21:13.708Z,128.17
2022-10-15T05:23:41.308Z,121.63
2022-10-15T05:26:13.534Z,127.67
2022-10-15T05:28:41.130Z,126.23
2022-10-15T05:31:10.974Z,122.33
2022-10-15T05:33:40.227Z,123.93
2022-10-15T05:36:11.665Z,127.23
2022-10-15T05:38:39.226Z,134.07
2022-10-15T05:41:07.217Z,113.57
2022-10-15T05:43:38.782Z,125.53
2022-10-15T05:46:08.807Z,131.93
2022-10-15T05:48:36.335Z,133.70
2022-10-15T05:51:04.763Z,129.93
2022-10-15T05:53:32.610Z,129.27
2022-10-15T05:56:00.203Z,129.37
2022-10-15T05:58:30.880Z,126.63
2022-10-15T06:01:04.047Z,128.27
2022-10-15T06:03:31.672Z,128.97
2022-10-15T06:05:59.199Z,131.87
2022-10-15T06:08:26.796Z,128.73
2022-10-15T06:10:54.292Z,118.87
2022-10-15T06:13:21.855Z,126.43
2022-10-15T06:15:49.486Z,121.23
2022-10-15T06:18:18.343Z,125.77
2022-10-15T06:20:45.892Z,126.73
2022-10-15T06:23:13.395Z,117.63
2022-10-15T06:25:40.954Z,128.43
2022-10-15T06:28:09.462Z,134.93
2022-10-15T06:30:36.934Z,131.67
2022-10-15T06:33:04.705Z,130.73
2022-10-15T06:35:35.270Z,131.20
2022-10-15T06:38:03.394Z,127.37
2022-10-15T06:40:31.537Z,122.93
2022-10-15T06:43:04.691Z,130.43
2022-10-15T06:45:32.282Z,128.17
2022-10-15T06:47:59.778Z,144.03
2022-10-15T06:50:27.390Z,146.73
2022-10-15T06:52:56.316Z,143.73
2022-10-15T06:55:23.859Z,142.67
2022-10-15T06:57:51.409Z,142.97
2022-10-15T07:00:19.208Z,147.73
2022-10-15T07:02:46.691Z,143.80
2022-10-15T07:05:14.327Z,132.87
2022-10-15T07:07:41.880Z,133.13
2022-10-15T07:10:11.112Z,146.87
2022-10-15T07:12:38.690Z,143.20
2022-10-15T07:15:07.407Z,149.80
2022-10-15T07:17:35.213Z,144.57
2022-10-15T07:20:02.713Z,141.83
2022-10-15T07:22:30.241Z,147.17
2022-10-15T07:24:57.790Z,148.50
2022-10-15T07:27:26.621Z,142.97
2022-10-15T07:29:54.151Z,161.57
2022-10-15T07:32:21.939Z,166.97
2022-10-15T07:34:49.683Z,169.87
2022-10-15T07:37:17.225Z,172.47
2022-10-15T07:39:44.731Z,179.13
2022-10-15T07:44:42.020Z,170.07
2022-10-15T07:47:09.526Z,171.40
2022-10-15T07:49:37.024Z,179.47
2022-10-15T07:52:04.539Z,170.07
2022-10-15T07:54:33.595Z,175.43
2022-10-15T07:57:01.106Z,171.07
2022-10-15T07:59:28.616Z,189.00
2022-10-15T08:01:57.451Z,176.63
2022-10-15T08:04:25.062Z,172.97
2022-10-15T08:06:52.570Z,169.30
2022-10-15T08:09:20.234Z,175.40
2022-10-15T08:11:47.759Z,175.17
2022-10-15T08:14:15.376Z,177.73
2022-10-15T08:16:42.883Z,165.50
2022-10-15T08:19:11.731Z,185.47
2022-10-15T08:21:40.944Z,180.87
2022-10-15T08:24:10.397Z,168.63
2022-10-15T08:26:37.988Z,175.77
2022-10-15T08:29:05.601Z,171.50
2022-10-15T08:31:33.191Z,177.17
2022-10-15T08:34:00.984Z,182.93
2022-10-15T08:36:29.935Z,177.70
2022-10-15T08:38:57.706Z,177.47
2022-10-15T08:41:31.492Z,177.70
2022-10-15T08:43:59.711Z,205.47
2022-10-15T08:46:37.235Z,177.40
2022-10-15T08:49:05.897Z,178.93
2022-10-15T08:51:42.646Z,172.90
2022-10-15T08:54:14.836Z,167.43
2022-10-15T08:56:45.594Z,168.83
2022-10-15T08:59:19.309Z,164.73
2022-10-15T09:01:52.195Z,172.57
2022-10-15T09:07:10.481Z,171.53
2022-10-15T09:09:45.277Z,175.57
2022-10-15T09:12:23.332Z,172.37
2022-10-15T09:14:51.072Z,173.13
2022-10-15T09:17:22.509Z,177.27
2022-10-15T09:19:51.086Z,174.87
2022-10-15T09:22:26.437Z,177.33
2022-10-15T09:24:54.205Z,175.67
2022-10-15T09:27:27.850Z,177.53
2022-10-15T09:30:01.736Z,172.33
2022-10-15T09:32:33.344Z,170.57
2022-10-15T09:35:06.989Z,184.03
2022-10-15T09:37:42.806Z,169.87
2022-10-15T09:40:25.741Z,175.13
2022-10-15T09:42:54.628Z,179.97
2022-10-15T09:45:24.473Z,186.00
2022-10-15T09:47:52.974Z,181.27
2022-10-15T09:50:20.727Z,186.83
2022-10-15T09:53:01.826Z,178.83
2022-10-15T09:55:36.282Z,183.33
2022-10-15T09:58:06.171Z,190.53
2022-10-15T10:01:01.635Z,188.10
2022-10-15T10:03:30.844Z,193.40
2022-10-15T10:06:04.339Z,186.27
2022-10-15T10:08:36.859Z,176.27
2022-10-15T10:11:06.157Z,183.13
2022-10-15T10:13:35.815Z,180.93
2022-10-15T10:16:06.029Z,177.13
2022-10-15T10:18:33.785Z,173.73
2022-10-15T10:21:02.404Z,187.37
2022-10-15T10:23:34.527Z,189.87
2022-10-15T10:26:05.744Z,177.27
2022-10-15T10:28:35.980Z,175.10
2022-10-15T10:31:07.867Z,179.47
2022-10-15T10:33:37.565Z,182.23
2022-10-15T10:36:06.702Z,181.87
2022-10-15T10:38:35.858Z,170.13
2022-10-15T10:41:07.731Z,159.10
2022-10-15T10:43:39.180Z,184.53
2022-10-15T10:46:18.240Z,179.33
2022-10-15T10:48:47.469Z,185.07
2022-10-15T10:51:19.351Z,171.03
2022-10-15T10:53:52.894Z,156.33
2022-10-15T10:56:24.544Z,163.27
2022-10-15T10:58:59.488Z,165.23
2022-10-15T11:01:28.089Z,175.10
2022-10-15T11:03:55.590Z,164.43
2022-10-15T11:06:38.052Z,189.23
2022-10-15T11:09:18.939Z,140.87
2022-10-15T11:11:56.519Z,187.67
2022-10-15T11:14:28.876Z,195.90
2022-10-15T11:17:01.402Z,173.67
2022-10-15T11:19:55.007Z,192.23
2022-10-15T11:22:33.628Z,205.50
2022-10-15T11:25:07.904Z,181.90
2022-10-15T11:27:51.055Z,193.73
2022-10-15T11:30:28.759Z,172.83
2022-10-15T11:33:07.790Z,182.33
2022-10-15T11:35:59.032Z,159.83
2022-10-15T11:38:30.262Z,193.87
2022-10-15T11:41:11.176Z,184.67
2022-10-15T11:43:49.832Z,180.57
2022-10-15T11:46:21.796Z,172.57
2022-10-15T11:49:02.954Z,188.23
2022-10-15T11:51:34.366Z,186.17
2022-10-15T11:54:23.162Z,170.70
2022-10-15T11:56:53.336Z,153.43
2022-10-15T11:59:30.973Z,201.83
2022-10-15T12:02:01.328Z,170.80
2022-10-15T12:04:33.462Z,185.03
2022-10-15T12:07:03.041Z,185.27
2022-10-15T12:09:37.680Z,184.30
2022-10-15T12:12:10.696Z,199.97
2022-10-15T12:14:42.571Z,180.97
2022-10-15T12:17:15.575Z,179.17
2022-10-15T12:19:46.586Z,190.03
2022-10-15T12:22:14.101Z,201.07
2022-10-15T12:24:53.532Z,178.00
2022-10-15T12:27:24.533Z,186.67
2022-10-15T12:30:20.160Z,183.90
2022-10-15T12:32:48.779Z,187.63
2022-10-15T12:35:23.101Z,177.63
2022-10-15T12:37:50.811Z,167.90
2022-10-15T12:40:28.499Z,159.67
2022-10-15T12:42:58.852Z,169.17
2022-10-15T12:45:35.875Z,165.77
2022-10-15T12:48:22.680Z,175.67
2022-10-15T12:50:50.320Z,187.03
2022-10-15T12:53:32.361Z,168.93
2022-10-15T12:56:23.570Z,168.40
2022-10-15T12:58:52.148Z,168.17
2022-10-15T13:01:30.691Z,191.53
2022-10-15T13:04:00.077Z,186.30
2022-10-15T13:06:33.274Z,184.10
2022-10-15T13:09:20.041Z,179.10
2022-10-15T13:11:49.027Z,178.63
2022-10-15T13:14:23.001Z,173.47
2022-10-15T13:16:52.022Z,196.23
2022-10-15T13:19:20.323Z,172.97
2022-10-15T13:21:49.559Z,191.83
2022-10-15T13:24:19.247Z,176.60
2022-10-15T13:26:46.983Z,179.10
2022-10-15T13:29:17.052Z,165.43
2022-10-15T13:31:45.786Z,174.63
2022-10-15T13:34:22.773Z,165.40
2022-10-15T13:36:50.848Z,205.53
2022-10-15T13:39:29.631Z,196.23
2022-10-15T13:42:08.266Z,196.13
2022-10-15T13:44:36.183Z,198.27
2022-10-15T13:47:04.132Z,197.47
2022-10-15T13:49:33.039Z,200.17
2022-10-15T13:52:00.575Z,197.27
2022-10-15T13:54:31.355Z,193.90
2022-10-15T13:57:01.879Z,180.83
2022-10-15T13:59:31.275Z,202.60
2022-10-15T14:02:00.870Z,195.73
2022-10-15T14:04:29.389Z,189.40
2022-10-15T14:07:01.821Z,182.93
2022-10-15T14:09:32.390Z,192.13
2022-10-15T14:12:03.482Z,196.43
2022-10-15T14:14:34.231Z,169.57
2022-10-15T14:17:02.714Z,149.70
2022-10-15T14:19:31.163Z,178.60
2022-10-15T14:22:01.222Z,162.07
2022-10-15T14:24:33.227Z,174.33
2022-10-15T14:27:05.926Z,173.13
2022-10-15T14:29:39.576Z,198.30
2022-10-15T14:32:25.438Z,163.13
2022-10-15T14:34:54.111Z,183.03
2022-10-15T14:37:42.685Z,171.37
2022-10-15T14:40:19.770Z,165.83
2022-10-15T14:42:48.746Z,162.87
2022-10-15T14:45:22.779Z,168.50
2022-10-15T14:47:52.308Z,186.03
2022-10-15T14:50:20.537Z,172.87
2022-10-15T14:52:51.626Z,185.30
2022-10-15T14:55:33.029Z,197.83
2022-10-15T14:58:02.026Z,199.53
2022-10-15T15:00:32.481Z,202.93
2022-10-15T15:03:05.229Z,181.20
2022-10-15T15:05:45.253Z,189.10
2022-10-15T15:08:14.173Z,167.37
2022-10-15T15:10:42.188Z,188.13
2022-10-15T15:13:12.791Z,193.33
2022-10-15T15:15:41.259Z,205.30
2022-10-15T15:18:10.273Z,197.13
2022-10-15T15:20:37.969Z,197.03
2022-10-15T15:23:05.502Z,206.53
2022-10-15T15:25:36.980Z,196.60
2022-10-15T15:28:05.306Z,197.40
2022-10-15T15:30:34.295Z,171.80
2022-10-15T15:33:02.050Z,171.87
2022-10-15T15:35:33.717Z,197.93
2022-10-15T15:38:01.255Z,181.63
2022-10-15T15:40:28.814Z,179.27
2022-10-15T15:42:57.650Z,186.33
2022-10-15T15:45:27.306Z,175.83
2022-10-15T15:47:56.204Z,195.17
2022-10-15T15:50:23.715Z,184.37
2022-10-15T15:52:51.332Z,172.47
2022-10-15T15:55:18.906Z,182.87
2022-10-15T15:57:46.426Z,186.63
2022-10-15T16:00:16.283Z,146.60
2022-10-15T16:02:44.130Z,170.60
2022-10-15T16:05:14.063Z,171.47
2022-10-15T16:07:41.651Z,168.47
2022-10-15T16:10:11.863Z,173.53
2022-10-15T16:12:39.546Z,178.70
2022-10-15T16:15:11.645Z,172.57
2022-10-15T16:17:43.622Z,168.53
2022-10-15T16:20:12.626Z,178.80
2022-10-15T16:22:40.282Z,178.47
2022-10-15T16:25:09.139Z,180.53
2022-10-15T16:27:36.972Z,181.30
2022-10-15T16:30:05.215Z,192.80
2022-10-15T16:32:32.747Z,175.53
2022-10-15T16:35:01.610Z,170.67
2022-10-15T16:37:29.118Z,182.77
2022-10-15T16:39:57.023Z,172.13
2022-10-15T16:42:24.517Z,173.03
2022-10-15T16:44:52.682Z,170.63
2022-10-15T16:47:21.289Z,175.90
2022-10-15T16:49:48.933Z,180.87
2022-10-15T16:52:17.916Z,177.93
2022-10-15T16:54:45.419Z,178.97
2022-10-15T16:57:12.974Z,171.27
2022-10-15T16:59:40.489Z,182.33
2022-10-15T17:02:08.078Z,174.93
2022-10-15T17:04:35.670Z,167.47
2022-10-15T17:07:03.220Z,176.80
2022-10-15T17:09:32.297Z,176.27
2022-10-15T17:11:59.871Z,175.53
2022-10-15T17:14:27.644Z,180.77
2022-10-15T17:16:55.158Z,172.27
2022-10-15T17:19:27.766Z,178.90
2022-10-15T17:21:58.235Z,170.03
2022-10-15T17:24:25.716Z,181.33
2022-10-15T17:26:57.959Z,183.13
2022-10-15T17:29:29.091Z,178.43
2022-10-15T17:32:01.891Z,171.90
2022-10-15T17:34:29.535Z,178.43
2022-10-15T17:36:57.075Z,173.80
2022-10-15T17:39:24.803Z,176.07
2022-10-15T17:41:53.966Z,187.30
2022-10-15T17:44:22.143Z,195.07
2022-10-15T17:46:50.369Z,175.90
2022-10-15T17:49:18.690Z,159.23
2022-10-15T17:51:46.725Z,155.43
2022-10-15T17:54:14.292Z,145.97
2022-10-15T17:56:41.823Z,155.47
2022-10-15T17:59:12.699Z,169.43
2022-10-15T18:01:58.743Z,173.67
2022-10-15T18:04:27.896Z,163.33
2022-10-15T18:06:55.689Z,171.97
2022-10-15T18:09:23.156Z,179.70
2022-10-15T18:11:50.732Z,170.13
2022-10-15T18:16:48.103Z,168.93
2022-10-15T18:19:15.620Z,172.80
2022-10-15T18:21:47.002Z,176.57
2022-10-15T18:24:19.865Z,169.73
2022-10-15T18:26:47.461Z,167.00
2022-10-15T18:29:15.011Z,187.97
2022-10-15T18:31:43.911Z,169.53
2022-10-15T18:34:11.432Z,152.00
2022-10-15T18:36:41.504Z,198.67
2022-10-15T18:39:09.120Z,184.10
2022-10-15T18:41:38.149Z,187.87
2022-10-15T18:44:07.241Z,156.80
2022-10-15T18:46:35.812Z,180.13
2022-10-15T18:49:04.715Z,191.57
2022-10-15T18:51:32.362Z,186.07
2022-10-15T18:54:00.174Z,167.07
2022-10-15T18:56:28.396Z,173.07
2022-10-15T18:58:55.919Z,178.40
2022-10-15T19:01:26.648Z,173.33
2022-10-15T19:03:54.276Z,180.23
2022-10-15T19:06:24.446Z,182.27
2022-10-15T19:08:52.381Z,187.80
2022-10-15T19:11:20.221Z,182.70
2022-10-15T19:13:47.767Z,173.23
2022-10-15T19:16:15.357Z,182.80
2022-10-15T19:18:42.883Z,172.97
2022-10-15T19:21:12.044Z,187.90
2022-10-15T19:23:40.928Z,180.57
2022-10-15T19:26:09.348Z,184.03
2022-10-15T19:28:37.494Z,187.80
2022-10-15T19:31:07.020Z,179.90
2022-10-15T19:33:35.996Z,189.70
2022-10-15T19:36:03.642Z,190.03
2022-10-15T19:38:31.341Z,181.80
2022-10-15T19:41:02.921Z,176.63
2022-10-15T19:43:30.506Z,184.30
2022-10-15T19:46:03.775Z,187.60
2022-10-15T19:48:32.030Z,187.87
2022-10-15T19:51:02.124Z,187.67
2022-10-15T19:53:30.291Z,181.13
2022-10-15T19:56:00.836Z,190.83
2022-10-15T19:58:28.395Z,182.40
2022-10-15T20:00:56.491Z,172.63
2022-10-15T20:03:27.945Z,184.07
2022-10-15T20:05:56.199Z,186.43
2022-10-15T20:08:24.372Z,152.83
2022-10-15T20:10:52.693Z,199.07
2022-10-15T20:13:23.423Z,198.13
2022-10-15T20:15:52.471Z,192.03
2022-10-15T20:18:20.517Z,186.50
2022-10-15T20:20:48.868Z,185.27
2022-10-15T20:23:17.724Z,165.20
2022-10-15T20:25:45.701Z,187.57
2022-10-15T20:28:14.291Z,155.47
2022-10-15T20:30:43.447Z,192.40
2022-10-15T20:33:11.812Z,148.30
2022-10-15T20:35:40.246Z,194.20
2022-10-15T20:38:08.201Z,181.07
2022-10-15T20:40:36.548Z,181.00
2022-10-15T20:43:04.081Z,172.23
2022-10-15T20:45:34.494Z,168.63
2022-10-15T20:48:03.999Z,168.63
2022-10-15T20:50:33.567Z,184.30
2022-10-15T20:53:01.218Z,180.33
2022-10-15T20:55:29.490Z,194.37
2022-10-15T20:57:57.028Z,165.17
2022-10-15T21:00:24.542Z,160.90
2022-10-15T21:02:52.049Z,190.93
2022-10-15T21:05:21.449Z,192.30
2022-10-15T21:07:48.990Z,190.10
2022-10-15T21:10:16.524Z,181.73
2022-10-15T21:12:44.049Z,178.47
2022-10-15T21:15:12.789Z,192.87
2022-10-15T21:17:40.933Z,181.40
2022-10-15T21:20:09.758Z,177.87
2022-10-15T21:22:38.634Z,180.63
2022-10-15T21:25:07.311Z,178.00
2022-10-15T21:27:35.070Z,184.57
2022-10-15T21:30:02.715Z,156.17
2022-10-15T21:32:30.261Z,172.93
2022-10-15T21:34:57.759Z,186.97
2022-10-15T21:37:25.474Z,164.27
2022-10-15T21:39:54.503Z,170.67
2022-10-15T21:42:22.039Z,166.97
2022-10-15T21:44:49.619Z,180.40
2022-10-15T21:47:17.123Z,165.57
2022-10-15T21:49:45.700Z,178.73
2022-10-15T21:52:13.487Z,184.20
2022-10-15T21:54:41.007Z,183.30
2022-10-15T21:57:09.867Z,166.43
2022-10-15T21:59:37.381Z,184.50
2022-10-15T22:02:05.130Z,172.43
2022-10-15T22:04:34.155Z,163.20
2022-10-15T22:07:01.686Z,182.07
2022-10-15T22:09:29.686Z,189.23
2022-10-15T22:11:57.212Z,186.40
2022-10-15T22:14:26.068Z,197.40
2022-10-15T22:16:53.571Z,192.80
2022-10-15T22:19:21.111Z,191.90
2022-10-15T22:21:48.614Z,151.90
2022-10-15T22:24:17.985Z,188.27
2022-10-15T22:26:47.581Z,185.40
2022-10-15T22:29:18.899Z,210.00
2022-10-15T22:31:48.108Z,221.97
2022-10-15T22:34:15.707Z,189.97
2022-10-15T22:36:43.291Z,196.80
2022-10-15T22:39:13.813Z,203.13
2022-10-15T22:41:43.286Z,202.67
2022-10-15T22:44:14.256Z,190.20
2022-10-15T22:46:45.911Z,199.97
2022-10-15T22:49:15.126Z,197.13
2022-10-15T22:51:42.846Z,196.23
2022-10-15T22:54:10.443Z,198.67
2022-10-15T22:56:38.125Z,128.53
2022-10-15T22:59:06.170Z,138.73
2022-10-15T23:01:34.684Z,142.23
2022-10-15T23:04:03.816Z,148.77
2022-10-15T23:06:34.292Z,142.00
2022-10-15T23:09:01.865Z,139.57
2022-10-15T23:11:31.893Z,134.50
2022-10-15T23:14:00.456Z,135.33
2022-10-15T23:16:30.115Z,143.47
2022-10-15T23:18:58.985Z,144.73
2022-10-15T23:21:29.989Z,147.87
2022-10-15T23:23:58.959Z,138.97
2022-10-15T23:26:26.499Z,146.37
2022-10-15T23:28:57.335Z,141.53
2022-10-15T23:31:28.541Z,142.27
2022-10-15T23:33:57.267Z,144.57
2022-10-15T23:36:25.870Z,134.00
2022-10-15T23:38:54.895Z,149.17
2022-10-15T23:41:23.932Z,129.03
2022-10-15T23:43:51.567Z,130.00
2022-10-15T23:46:19.223Z,130.73
2022-10-15T23:48:47.571Z,136.27
2022-10-15T23:51:15.351Z,142.57
2022-10-15T23:56:11.504Z,144.17
2022-10-15T23:58:40.910Z,154.10
